Rome, Georgia
Current Conditions -  °F | °C
As of 2:53 PM on Wednesday 17 Dec 2014 (Local Time) from KRMG Reporting Station
Overcast Overcast  
Wind Chill:   Ceiling: 1900
Heat Index:   Visibility: 10mi
Dew Point:   Wind: 7mph
Humidity: 74%   Direction: 350°N
Pressure: 30.17"   Gusts: NA
Location:  34.25°N, 85.17°W
Report Text: KRMG 171953Z AUTO 35006KT 10SM OVC019 07/03 A3017 RMK AO2 SLP216 T00720028
Loading
Personal Weather Stations






























Interactive Weather Map New forecast layout! Learn more

10-Day Weather Forecast

Advertisements
Track Severe Weather on mobile